This is the latest recevied weather packets stored in our database for station/object HA3KE-10. If no packets are shown the sender has not sent any weather packets the latest 10 day(s).
| Time | Temp. | Humidity | Pressure | Rain* | Wind** | Luminosity | Snow |
|---|---|---|---|---|---|---|---|
| 1777702782 | 12.78° C | 42% | 1024.5 hPa | - | - | - | - |
| 1777701884 | 12.78° C | 45% | 1024.6 hPa | - | - | - | - |
| 1777700979 | 12.22° C | 46% | 1024.5 hPa | - | - | - | - |
| 1777700084 | 11.67° C | 46% | 1024.4 hPa | - | - | - | - |
| 1777699179 | 11.67° C | 47% | 1024.5 hPa | - | - | - | - |
| 1777698284 | 11.11° C | 48% | 1024.4 hPa | - | - | - | - |
| 1777697378 | 11.11° C | 48% | 1024.3 hPa | - | - | - | - |
| 1777696484 | 11.11° C | 48% | 1024.4 hPa | - | - | - | - |
| 1777695583 | 10.56° C | 47% | 1024.3 hPa | - | - | - | - |
| 1777694684 | 11.11° C | 45% | 1024.4 hPa | - | - | - | - |
| 1777693783 | 11.11° C | 44% | 1024.2 hPa | - | - | - | - |
| 1777692884 | 11.11° C | 44% | 1024.2 hPa | - | - | - | - |
| 1777691983 | 10.56° C | 46% | 1024.4 hPa | - | - | - | - |
| 1777691084 | 11.11° C | 44% | 1024.3 hPa | - | - | - | - |
| 1777690182 | 11.11° C | 44% | 1024.3 hPa | - | - | - | - |
| 1777689285 | 11.67° C | 44% | 1024.4 hPa | - | - | - | - |
| 1777673983 | 12.78° C | 42% | 1025.2 hPa | - | - | - | - |
| 1777669485 | 12.22° C | 40% | 1025.3 hPa | - | - | - | - |
| 1777664979 | 13.33° C | 39% | 1025.2 hPa | - | - | - | - |
| 1777664079 | 13.89° C | 38% | 1025.4 hPa | - | - | - | - |
| 1777663180 | 14.44° C | 37% | 1025.3 hPa | - | - | - | - |
| 1777660478 | 15° C | 33% | 1025 hPa | - | - | - | - |
| 1777653280 | 20° C | 24% | 1024.8 hPa | - | - | - | - |
| 1777651479 | 21.11° C | 23% | 1024.9 hPa | - | - | - | - |
| 1777649679 | 21.67° C | 22% | 1025 hPa | - | - | - | - |
* Rain since midnight (hover to see other rain measurements)
** Current wind speed in m/s (hover to see current wind gust speed)